x

Eel River - 17nm Wsw Of Eureka, Ca (46022) Wave Buoy

10:50am - Sun 24th Sep 2017 All times are PDT. -7 hours from GMT.

  • Sig Wave height 5.2ft
  • Swell Direction
  • Peak Period 8s
  • Average Period 6s
  • Wind
    7mph, 9mph gusts
  • Sea Temp 57°f
  • Air Temp 53°f
  • Sea Pressure 1017.3mb
  • Eel River - 17nm Wsw Of Eureka, Ca
  • Eel River - 17nm Wsw Of Eureka, Ca

More Historic Weather Station data

Upgrade to MSW Pro to gain access to the past 30 days of data for over 8000 Wavebouys and Weather Stations around the globe.

Join

Comparision Forecast

View Surf forecast
   
Sun 09/24 10:50am 5ft 8s 6s 7 9 mph 1017.3mb 57f 53f
9:50am 5ft 8s 6s 9 9 mph 1017.4mb 57f 54f
8:50am 4.5ft 8s 6s 9 13 mph 1017.2mb 57f 54f
7:50am 5ft 7s 6s 9 11 mph 1016.8mb 57f 53f
6:50am 4.5ft 8s 6s 9 11 mph 1016.4mb 57f 53f
5:50am 5ft 7s 6s 11 13 mph 1015.9mb 57f 55f
4:50am 5.5ft 8s 6s 13 18 mph 1015.9mb 57f 56f
3:50am 5ft 7s 6s 13 18 mph 1015.6mb 57f 56f
2:50am 6ft 8s 6s 11 13 mph 1015.6mb 57f 56f
1:50am 6ft 8s 6s 11 13 mph 1015.7mb 57f 56f
12:50am 6ft 8s 6s 11 13 mph 1015.9mb 57f 57f
Sat 09/23 11:50pm 6ft 7s 6s 11 13 mph 1016.2mb 57f 57f
10:50pm 6ft 6s 6s 9 11 mph 1016.2mb 57f 57f
9:50pm 6ft 7s 6s 9 9 mph 1016.3mb 57f 58f
8:50pm 6ft 8s 6s 9 9 mph 1016.4mb 57f 58f
7:50pm 6ft 9s 6s 7 9 mph 1016.4mb 57f 58f
6:50pm 6ft 7s 6s 7 9 mph 1016.2mb 57f 58f
5:50pm 6ft 8s 6s 13 16 mph 1015.8mb 58f 60f
4:50pm 6ft 9s 6s 16 20 mph 1015.5mb 58f 60f
3:50pm 6ft 8s 6s 16 18 mph 1015.7mb 58f 58f
2:50pm 6ft 8s 6s 16 20 mph 1016.2mb 57f 58f
1:50pm 6ft 9s 6s 20 25 mph 1016.3mb 58f 58f
12:50pm 6ft 9s 6s 16 20 mph 1016.5mb 58f 58f
11:50am 6ft 9s 7s 13 16 mph 1016.7mb 58f 58f
10:50am 6.5ft 9s 7s 11 11 mph 1016.6mb 57f 57f
9:50am 7ft 9s 7s 4 4 mph 1016.9mb 57f 56f
8:50am 7ft 10s 7s 2 4 mph 1016.5mb 57f 55f
7:50am 7ft 9s 7s 7 9 mph 1016.1mb 57f 55f
6:50am 7.5ft 10s 7s 4 9 mph 1015.7mb 57f 55f
5:50am 7ft 10s 7s 4 7 mph 1015.4mb 57f 55f
4:50am 7.5ft 9s 7s 2 4 mph 1015.2mb 57f 55f
3:50am 8ft 10s 7s 4 7 mph 1014.8mb 57f 55f
2:50am 9ft 10s 7s 4 7 mph 1014.9mb 57f 55f
1:50am 9ft 10s 7s 4 7 mph 1015mb 57f 55f
12:50am 9ft 10s 7s 9 11 mph 1014.8mb 57f 57f
Fri 09/22 11:50pm 9.5ft 10s 7s 9 11 mph 1014.8mb 58f 58f
10:50pm 9ft 10s 7s 9 11 mph 1014.9mb 58f 58f
9:50pm 9ft 10s 7s 11 13 mph 1015.1mb 58f 58f
8:50pm 9.5ft 10s 7s 11 16 mph 1015mb 58f 58f
7:50pm 9.5ft 11s 7s 13 16 mph 1014.9mb 58f 58f
6:50pm 8.5ft 11s 7s 16 18 mph 1014.8mb 59f 58f
5:50pm 8.5ft 10s 7s 18 22 mph 1014.6mb 59f 59f
4:50pm 8.5ft 11s 7s 16 20 mph 1014.6mb 59f 59f
3:50pm 9ft 11s 7s 18 22 mph 1014.4mb 59f 59f
2:50pm 8ft 11s 7s 18 20 mph 1014.4mb 59f 59f
1:50pm 9ft 11s 8s 16 18 mph 1014.6mb 59f 58f
12:50pm 9ft 11s 8s 13 16 mph 1014.6mb 59f 57f
11:50am 9.5ft 11s 9s 11 16 mph 1014.7mb 59f 57f
10:50am 11ft 11s 9s 9 11 mph 1015mb 59f 56f
9:50am 10ft 10s 8s 2 7 mph 1014.8mb 59f 55f
8:50am 9.5ft 11s 8s 7 9 mph 1014.3mb 59f 56f
7:50am 10.5ft 11s 9s 9 13 mph 1014.1mb 59f 56f
6:50am 10ft 11s 9s 9 11 mph 1013.6mb 59f 56f
5:50am 8.5ft 10s 9s 7 9 mph 1013.2mb 59f 56f
4:50am 9ft 11s 9s 4 7 mph 1013.3mb 59f 55f
3:50am 8ft 11s 9s 4 7 mph 1013.2mb 59f 55f
2:50am 7ft 10s 8s 4 7 mph 1013mb 59f 55f
1:50am 7.5ft 11s 9s 2 4 mph 1013.1mb 59f 57f
12:50am 6.5ft 11s 8s 4 7 mph 1013.3mb 59f 56f
Thu 09/21 10:50pm 8ft 11s 8s 2 4 mph 1013.6mb 59f 57f
9:50pm 8ft 10s 8s 4 7 mph 1013.7mb 59f 57f
8:50pm 8ft 11s 8s 4 4 mph 1013.7mb 59f 58f
7:50pm 8ft 11s 8s 4 7 mph 1013.4mb 60f 58f
6:50pm 8.5ft 10s 8s 7 9 mph 1013.5mb 60f 59f
5:50pm 9ft 10s 8s 4 9 mph 1013.8mb 60f 58f
4:50pm 10ft 11s 8s 4 7 mph 1013.8mb 60f 58f
3:50pm 9ft 10s 8s 4 7 mph 1013.9mb 59f 59f
2:50pm 10ft 11s 8s 4 7 mph 1014.2mb 59f 58f
1:50pm 9.5ft 11s 8s 2 7 mph 1014.4mb 59f 58f
12:50pm 9ft 11s 8s 2 4 mph 1014.7mb 59f 57f
11:50am 10ft 11s 9s 2 7 mph 1014.9mb 59f 56f
10:50am 9.5ft 10s 8s 4 7 mph 1015.1mb 59f 55f
9:50am 8ft 11s 8s 7 11 mph 1014.7mb 58f 54f
8:50am 9ft 10s 8s 9 11 mph 1014.4mb 58f 56f
7:50am 9ft 11s 8s 16 18 mph 1014.1mb 58f 58f
6:50am 9.5ft 10s 9s 16 20 mph 1013.7mb 58f 58f
5:50am 9ft 11s 9s 7 9 mph 1013.5mb 58f 57f
4:50am 9ft 11s 9s 4 7 mph 1013.5mb 58f 56f
3:50am 9.5ft 11s 8s 4 7 mph 1013.5mb 57f 57f
2:50am 10ft 11s 8s 7 9 mph 1013.3mb 57f 57f
1:50am 9ft 11s 8s 7 9 mph 1013.4mb 57f 57f
12:50am 10.5ft 11s 8s 7 9 mph 1013.2mb 57f 56f
Wed 09/20 11:50pm 10ft 11s 8s 4 9 mph 1013.1mb 57f 57f
10:50pm 10ft 11s 8s 4 7 mph 1013.1mb 57f 57f
9:50pm 10.5ft 11s 8s 7 7 mph 1012.9mb 58f 58f
8:50pm 9.5ft 11s 8s 11 13 mph 1012.6mb 58f 58f
7:50pm 9ft 9s 8s 7 11 mph 1012.3mb 58f 57f